sensor_id;sensor_type;location;lat;lon;timestamp;P1;durP1;ratioP1;P2;durP2;ratioP2
61570;SDS011;47463;49.884;10.010;2022-12-07T00:00:00;23;;;12.3;;
61570;SDS011;47463;49.884;10.010;2022-12-07T00:05:00;22.6;;;12;;
61570;SDS011;47463;49.884;10.010;2022-12-07T00:10:00;26.7;;;12.3;;
61570;SDS011;47463;49.884;10.010;2022-12-07T00:15:00;24.7;;;12.6;;
61570;SDS011;47463;49.884;10.010;2022-12-07T00:20:00;24.7;;;12.6;;
61570;SDS011;47463;49.884;10.010;2022-12-07T00:25:00;24.1;;;13.2;;
61570;SDS011;47463;49.884;10.010;2022-12-07T00:30:00;24.5;;;12.5;;
61570;SDS011;47463;49.884;10.010;2022-12-07T00:35:00;21.8;;;12;;
61570;SDS011;47463;49.884;10.010;2022-12-07T00:40:00;22.7;;;12.5;;
61570;SDS011;47463;49.884;10.010;2022-12-07T00:45:00;23.5;;;11;;
61570;SDS011;47463;49.884;10.010;2022-12-07T00:50:00;23.5;;;11;;
61570;SDS011;47463;49.884;10.010;2022-12-07T00:55:00;25.5;;;12.9;;
61570;SDS011;47463;49.884;10.010;2022-12-07T01:00:00;25.5;;;12.4;;
61570;SDS011;47463;49.884;10.010;2022-12-07T01:05:00;23.6;;;11.6;;
61570;SDS011;47463;49.884;10.010;2022-12-07T01:10:00;22;;;10.8;;
61570;SDS011;47463;49.884;10.010;2022-12-07T01:15:00;20.7;;;10.9;;
61570;SDS011;47463;49.884;10.010;2022-12-07T01:20:00;20.7;;;10.9;;
61570;SDS011;47463;49.884;10.010;2022-12-07T01:25:00;20.5;;;10.6;;
61570;SDS011;47463;49.884;10.010;2022-12-07T01:30:00;21;;;11.1;;
61570;SDS011;47463;49.884;10.010;2022-12-07T01:35:00;21.4;;;11.5;;
61570;SDS011;47463;49.884;10.010;2022-12-07T01:40:00;20.2;;;10.9;;
61570;SDS011;47463;49.884;10.010;2022-12-07T01:46:04;24.1;;;11.7;;
61570;SDS011;47463;49.884;10.010;2022-12-07T01:50:00;24.1;;;11.7;;
61570;SDS011;47463;49.884;10.010;2022-12-07T01:55:00;21.1;;;11.2;;
61570;SDS011;47463;49.884;10.010;2022-12-07T02:00:00;20;;;11.1;;
61570;SDS011;47463;49.884;10.010;2022-12-07T02:05:00;21;;;10.5;;
61570;SDS011;47463;49.884;10.010;2022-12-07T02:10:11;22.9;;;12;;
61570;SDS011;47463;49.884;10.010;2022-12-07T02:15:00;22.6;;;10.9;;
61570;SDS011;47463;49.884;10.010;2022-12-07T02:20:03;22.6;;;10.9;;
61570;SDS011;47463;49.884;10.010;2022-12-07T02:25:02;21;;;10.1;;
61570;SDS011;47463;49.884;10.010;2022-12-07T02:30:00;23;;;11.2;;
61570;SDS011;47463;49.884;10.010;2022-12-07T02:35:02;22.3;;;10.8;;
61570;SDS011;47463;49.884;10.010;2022-12-07T02:40:01;22.2;;;11.3;;
61570;SDS011;47463;49.884;10.010;2022-12-07T02:45:00;23.8;;;11.5;;
61570;SDS011;47463;49.884;10.010;2022-12-07T02:50:02;23.8;;;11.5;;
61570;SDS011;47463;49.884;10.010;2022-12-07T02:55:00;23.1;;;11.9;;
61570;SDS011;47463;49.884;10.010;2022-12-07T03:00:01;28.6;;;12.9;;
61570;SDS011;47463;49.884;10.010;2022-12-07T03:05:02;27;;;12.7;;
61570;SDS011;47463;49.884;10.010;2022-12-07T03:10:07;24.7;;;11.1;;
61570;SDS011;47463;49.884;10.010;2022-12-07T03:15:00;30;;;13.9;;
61570;SDS011;47463;49.884;10.010;2022-12-07T03:20:00;30;;;13.9;;
61570;SDS011;47463;49.884;10.010;2022-12-07T03:25:00;30.5;;;13.3;;
61570;SDS011;47463;49.884;10.010;2022-12-07T03:30:00;32.5;;;13.4;;
61570;SDS011;47463;49.884;10.010;2022-12-07T03:35:02;31.5;;;14.3;;
61570;SDS011;47463;49.884;10.010;2022-12-07T03:40:02;30;;;13;;
61570;SDS011;47463;49.884;10.010;2022-12-07T03:45:00;32;;;13.6;;
61570;SDS011;47463;49.884;10.010;2022-12-07T03:50:00;32;;;13.6;;
61570;SDS011;47463;49.884;10.010;2022-12-07T03:55:00;27;;;12.2;;
61570;SDS011;47463;49.884;10.010;2022-12-07T04:00:00;26.6;;;12.5;;
61570;SDS011;47463;49.884;10.010;2022-12-07T04:05:00;34;;;13.9;;
61570;SDS011;47463;49.884;10.010;2022-12-07T04:10:00;27.6;;;13.7;;
61570;SDS011;47463;49.884;10.010;2022-12-07T04:15:00;28.1;;;13.1;;
61570;SDS011;47463;49.884;10.010;2022-12-07T04:20:00;28.1;;;13.1;;
61570;SDS011;47463;49.884;10.010;2022-12-07T04:25:00;27.8;;;11.6;;
61570;SDS011;47463;49.884;10.010;2022-12-07T04:30:00;24.9;;;11.8;;
61570;SDS011;47463;49.884;10.010;2022-12-07T04:35:00;22.4;;;10.2;;
61570;SDS011;47463;49.884;10.010;2022-12-07T04:40:00;25.4;;;11.5;;
61570;SDS011;47463;49.884;10.010;2022-12-07T04:45:00;20.7;;;9.3;;
61570;SDS011;47463;49.884;10.010;2022-12-07T04:50:00;20.7;;;9.3;;
61570;SDS011;47463;49.884;10.010;2022-12-07T04:55:00;19.7;;;9;;
61570;SDS011;47463;49.884;10.010;2022-12-07T05:00:00;19.4;;;8.8;;
61570;SDS011;47463;49.884;10.010;2022-12-07T05:05:00;17.7;;;7.5;;
61570;SDS011;47463;49.884;10.010;2022-12-07T05:10:00;17.1;;;8.7;;
61570;SDS011;47463;49.884;10.010;2022-12-07T05:15:00;15.8;;;6.9;;
61570;SDS011;47463;49.884;10.010;2022-12-07T05:20:00;15.8;;;6.9;;
61570;SDS011;47463;49.884;10.010;2022-12-07T05:25:00;14.8;;;7.3;;
61570;SDS011;47463;49.884;10.010;2022-12-07T05:30:00;15;;;7.2;;
61570;SDS011;47463;49.884;10.010;2022-12-07T05:35:00;15.1;;;7.4;;
61570;SDS011;47463;49.884;10.010;2022-12-07T05:40:00;15.8;;;7.7;;
61570;SDS011;47463;49.884;10.010;2022-12-07T05:45:00;16.5;;;7.4;;
61570;SDS011;47463;49.884;10.010;2022-12-07T05:50:00;16.5;;;7.4;;
61570;SDS011;47463;49.884;10.010;2022-12-07T05:55:00;15.9;;;7.7;;
61570;SDS011;47463;49.884;10.010;2022-12-07T06:00:00;19.1;;;8;;
61570;SDS011;47463;49.884;10.010;2022-12-07T06:05:00;18.1;;;8.2;;
61570;SDS011;47463;49.884;10.010;2022-12-07T06:10:00;20.2;;;9.1;;
61570;SDS011;47463;49.884;10.010;2022-12-07T06:15:00;18.8;;;8.6;;
61570;SDS011;47463;49.884;10.010;2022-12-07T06:20:00;18.8;;;8.6;;
61570;SDS011;47463;49.884;10.010;2022-12-07T06:25:00;17.3;;;7.9;;
61570;SDS011;47463;49.884;10.010;2022-12-07T06:30:00;17.4;;;8.6;;
61570;SDS011;47463;49.884;10.010;2022-12-07T06:35:00;18.4;;;8.3;;
61570;SDS011;47463;49.884;10.010;2022-12-07T06:40:00;20;;;9.9;;
61570;SDS011;47463;49.884;10.010;2022-12-07T06:45:00;24.7;;;10.4;;
61570;SDS011;47463;49.884;10.010;2022-12-07T06:50:00;24.7;;;10.4;;
61570;SDS011;47463;49.884;10.010;2022-12-07T06:55:00;19.6;;;9.1;;
61570;SDS011;47463;49.884;10.010;2022-12-07T07:00:00;22.2;;;10.4;;
61570;SDS011;47463;49.884;10.010;2022-12-07T07:05:00;19.9;;;9.2;;
61570;SDS011;47463;49.884;10.010;2022-12-07T07:10:00;22.8;;;10.4;;
61570;SDS011;47463;49.884;10.010;2022-12-07T07:15:00;21.8;;;10.7;;
61570;SDS011;47463;49.884;10.010;2022-12-07T07:20:00;21.8;;;10.7;;
61570;SDS011;47463;49.884;10.010;2022-12-07T07:25:00;25.9;;;11.5;;
61570;SDS011;47463;49.884;10.010;2022-12-07T07:30:00;22.6;;;11;;
61570;SDS011;47463;49.884;10.010;2022-12-07T07:35:00;23.4;;;11.7;;
61570;SDS011;47463;49.884;10.010;2022-12-07T07:40:00;24.9;;;11.5;;
61570;SDS011;47463;49.884;10.010;2022-12-07T07:45:00;25.9;;;12.8;;
61570;SDS011;47463;49.884;10.010;2022-12-07T07:50:00;25.9;;;12.8;;
61570;SDS011;47463;49.884;10.010;2022-12-07T07:55:00;23.4;;;11.1;;
61570;SDS011;47463;49.884;10.010;2022-12-07T08:00:00;27;;;12.8;;
61570;SDS011;47463;49.884;10.010;2022-12-07T08:05:00;25.8;;;12.9;;
61570;SDS011;47463;49.884;10.010;2022-12-07T08:10:00;24.9;;;12.7;;
61570;SDS011;47463;49.884;10.010;2022-12-07T08:15:00;29.2;;;12.5;;
61570;SDS011;47463;49.884;10.010;2022-12-07T08:20:00;29.2;;;12.5;;
61570;SDS011;47463;49.884;10.010;2022-12-07T08:25:00;27.1;;;13.1;;
61570;SDS011;47463;49.884;10.010;2022-12-07T08:30:00;25.9;;;12.9;;
61570;SDS011;47463;49.884;10.010;2022-12-07T08:35:00;26.2;;;13.2;;
61570;SDS011;47463;49.884;10.010;2022-12-07T08:40:00;25.9;;;13.3;;
61570;SDS011;47463;49.884;10.010;2022-12-07T08:45:00;28.9;;;14.3;;
61570;SDS011;47463;49.884;10.010;2022-12-07T08:50:00;28.9;;;14.3;;
61570;SDS011;47463;49.884;10.010;2022-12-07T08:55:00;30.5;;;14.4;;
61570;SDS011;47463;49.884;10.010;2022-12-07T09:00:00;26.1;;;13;;
61570;SDS011;47463;49.884;10.010;2022-12-07T09:05:00;24.5;;;12.9;;
61570;SDS011;47463;49.884;10.010;2022-12-07T09:10:00;28.7;;;13.9;;
61570;SDS011;47463;49.884;10.010;2022-12-07T09:15:00;27.3;;;13.2;;
61570;SDS011;47463;49.884;10.010;2022-12-07T09:20:00;27.3;;;13.2;;
61570;SDS011;47463;49.884;10.010;2022-12-07T09:25:00;27.9;;;13.6;;
61570;SDS011;47463;49.884;10.010;2022-12-07T09:30:00;28;;;13.7;;
61570;SDS011;47463;49.884;10.010;2022-12-07T09:35:00;31.4;;;14.1;;
61570;SDS011;47463;49.884;10.010;2022-12-07T09:40:00;29.9;;;14.6;;
61570;SDS011;47463;49.884;10.010;2022-12-07T09:45:00;25.4;;;12.9;;
61570;SDS011;47463;49.884;10.010;2022-12-07T09:50:00;25.4;;;12.9;;
61570;SDS011;47463;49.884;10.010;2022-12-07T09:55:00;26.6;;;14.7;;
61570;SDS011;47463;49.884;10.010;2022-12-07T10:00:00;26.1;;;13.5;;
61570;SDS011;47463;49.884;10.010;2022-12-07T10:05:00;24.2;;;12.4;;
61570;SDS011;47463;49.884;10.010;2022-12-07T10:10:01;27;;;13.6;;
61570;SDS011;47463;49.884;10.010;2022-12-07T10:15:00;26.7;;;13.3;;
61570;SDS011;47463;49.884;10.010;2022-12-07T10:20:12;26.7;;;13.3;;
61570;SDS011;47463;49.884;10.010;2022-12-07T10:25:07;22.2;;;12.2;;
61570;SDS011;47463;49.884;10.010;2022-12-07T10:30:01;19.8;;;10.8;;
61570;SDS011;47463;49.884;10.010;2022-12-07T10:35:32;25.4;;;11.5;;
61570;SDS011;47463;49.884;10.010;2022-12-07T10:40:00;20.6;;;10.8;;
61570;SDS011;47463;49.884;10.010;2022-12-07T10:45:07;21.1;;;11.2;;
61570;SDS011;47463;49.884;10.010;2022-12-07T10:50:02;21.1;;;11.2;;
61570;SDS011;47463;49.884;10.010;2022-12-07T10:55:05;19.1;;;10.4;;
61570;SDS011;47463;49.884;10.010;2022-12-07T11:00:01;16.1;;;9.7;;
61570;SDS011;47463;49.884;10.010;2022-12-07T11:05:02;19.1;;;9.9;;
61570;SDS011;47463;49.884;10.010;2022-12-07T11:10:02;20;;;10.2;;
61570;SDS011;47463;49.884;10.010;2022-12-07T11:15:01;18.1;;;9.6;;
61570;SDS011;47463;49.884;10.010;2022-12-07T11:20:01;18.1;;;9.6;;
61570;SDS011;47463;49.884;10.010;2022-12-07T11:25:02;17.9;;;9.4;;
61570;SDS011;47463;49.884;10.010;2022-12-07T11:30:09;15.9;;;9.4;;
61570;SDS011;47463;49.884;10.010;2022-12-07T11:35:03;21.3;;;10.2;;
61570;SDS011;47463;49.884;10.010;2022-12-07T11:40:00;14.1;;;8.6;;
61570;SDS011;47463;49.884;10.010;2022-12-07T11:45:00;16.2;;;8.8;;
61570;SDS011;47463;49.884;10.010;2022-12-07T11:50:03;16.2;;;8.8;;
61570;SDS011;47463;49.884;10.010;2022-12-07T11:55:00;14.5;;;8.6;;
61570;SDS011;47463;49.884;10.010;2022-12-07T12:00:00;19.3;;;8.9;;
61570;SDS011;47463;49.884;10.010;2022-12-07T12:05:02;12.9;;;7.9;;
61570;SDS011;47463;49.884;10.010;2022-12-07T12:10:01;15.3;;;7.8;;
61570;SDS011;47463;49.884;10.010;2022-12-07T12:15:03;12.5;;;7.3;;
61570;SDS011;47463;49.884;10.010;2022-12-07T12:20:01;12.5;;;7.3;;
61570;SDS011;47463;49.884;10.010;2022-12-07T12:25:00;14.4;;;7.9;;
61570;SDS011;47463;49.884;10.010;2022-12-07T12:30:01;13;;;7.6;;
61570;SDS011;47463;49.884;10.010;2022-12-07T12:35:01;14.4;;;8;;
61570;SDS011;47463;49.884;10.010;2022-12-07T12:40:12;12.9;;;7.7;;
61570;SDS011;47463;49.884;10.010;2022-12-07T12:45:02;16.7;;;7.9;;
61570;SDS011;47463;49.884;10.010;2022-12-07T12:50:16;16.7;;;7.9;;
61570;SDS011;47463;49.884;10.010;2022-12-07T12:55:00;14.3;;;8;;
61570;SDS011;47463;49.884;10.010;2022-12-07T13:00:00;12.8;;;8.1;;
61570;SDS011;47463;49.884;10.010;2022-12-07T13:05:00;14.2;;;7.6;;
61570;SDS011;47463;49.884;10.010;2022-12-07T13:10:00;13.8;;;8;;
61570;SDS011;47463;49.884;10.010;2022-12-07T13:15:00;12.5;;;6.9;;
61570;SDS011;47463;49.884;10.010;2022-12-07T13:20:00;12.5;;;6.9;;
61570;SDS011;47463;49.884;10.010;2022-12-07T13:25:03;10.9;;;5.8;;
61570;SDS011;47463;49.884;10.010;2022-12-07T13:30:00;13.5;;;6.8;;
61570;SDS011;47463;49.884;10.010;2022-12-07T13:35:00;10.6;;;5.7;;
61570;SDS011;47463;49.884;10.010;2022-12-07T13:40:00;11.4;;;6.2;;
61570;SDS011;47463;49.884;10.010;2022-12-07T13:45:00;11.2;;;6.5;;
61570;SDS011;47463;49.884;10.010;2022-12-07T13:50:00;11.2;;;6.5;;
61570;SDS011;47463;49.884;10.010;2022-12-07T13:55:01;11.2;;;7.2;;
61570;SDS011;47463;49.884;10.010;2022-12-07T14:00:00;14.8;;;7.5;;
61570;SDS011;47463;49.884;10.010;2022-12-07T14:05:09;14.6;;;7;;
61570;SDS011;47463;49.884;10.010;2022-12-07T14:10:00;12.2;;;7;;
61570;SDS011;47463;49.884;10.010;2022-12-07T14:15:00;10.9;;;6.7;;
61570;SDS011;47463;49.884;10.010;2022-12-07T14:20:00;10.9;;;6.7;;
61570;SDS011;47463;49.884;10.010;2022-12-07T14:25:01;9.4;;;5.2;;
61570;SDS011;47463;49.884;10.010;2022-12-07T14:30:00;7.9;;;4.2;;
61570;SDS011;47463;49.884;10.010;2022-12-07T14:35:00;6.8;;;3.2;;
61570;SDS011;47463;49.884;10.010;2022-12-07T14:40:00;8.1;;;5;;
61570;SDS011;47463;49.884;10.010;2022-12-07T14:45:00;7.4;;;4.1;;
61570;SDS011;47463;49.884;10.010;2022-12-07T14:50:00;7.4;;;4.1;;
61570;SDS011;47463;49.884;10.010;2022-12-07T14:55:00;5.8;;;3.4;;
61570;SDS011;47463;49.884;10.010;2022-12-07T15:00:00;8.1;;;3.8;;
61570;SDS011;47463;49.884;10.010;2022-12-07T15:05:00;5.9;;;3.5;;
61570;SDS011;47463;49.884;10.010;2022-12-07T15:10:00;6.8;;;3.4;;
61570;SDS011;47463;49.884;10.010;2022-12-07T15:15:00;7.9;;;4.3;;
61570;SDS011;47463;49.884;10.010;2022-12-07T15:20:00;7.9;;;4.3;;
61570;SDS011;47463;49.884;10.010;2022-12-07T15:25:00;10.8;;;5;;
61570;SDS011;47463;49.884;10.010;2022-12-07T15:30:00;13.8;;;4.6;;
61570;SDS011;47463;49.884;10.010;2022-12-07T15:35:00;13.6;;;5.7;;
61570;SDS011;47463;49.884;10.010;2022-12-07T15:40:00;11;;;4.7;;
61570;SDS011;47463;49.884;10.010;2022-12-07T15:45:00;12.4;;;6.6;;
61570;SDS011;47463;49.884;10.010;2022-12-07T15:50:00;12.4;;;6.6;;
61570;SDS011;47463;49.884;10.010;2022-12-07T15:55:00;11.4;;;5.7;;
61570;SDS011;47463;49.884;10.010;2022-12-07T16:00:00;14.1;;;7.4;;
61570;SDS011;47463;49.884;10.010;2022-12-07T16:05:00;16.3;;;8.3;;
61570;SDS011;47463;49.884;10.010;2022-12-07T16:10:00;21.4;;;9.3;;
61570;SDS011;47463;49.884;10.010;2022-12-07T16:15:00;14.5;;;7.2;;
61570;SDS011;47463;49.884;10.010;2022-12-07T16:20:00;14.5;;;7.2;;
61570;SDS011;47463;49.884;10.010;2022-12-07T16:25:00;11.6;;;6.7;;
61570;SDS011;47463;49.884;10.010;2022-12-07T16:30:00;15.1;;;7.9;;
61570;SDS011;47463;49.884;10.010;2022-12-07T16:35:00;20.4;;;9.2;;
61570;SDS011;47463;49.884;10.010;2022-12-07T16:40:00;18.2;;;9.3;;
61570;SDS011;47463;49.884;10.010;2022-12-07T16:45:00;16.2;;;8;;
61570;SDS011;47463;49.884;10.010;2022-12-07T16:50:00;16.2;;;8;;
61570;SDS011;47463;49.884;10.010;2022-12-07T16:55:00;12.8;;;6.7;;
61570;SDS011;47463;49.884;10.010;2022-12-07T17:00:00;17.2;;;6.7;;
61570;SDS011;47463;49.884;10.010;2022-12-07T17:05:00;10.2;;;5.2;;
61570;SDS011;47463;49.884;10.010;2022-12-07T17:10:00;8.8;;;4.8;;
61570;SDS011;47463;49.884;10.010;2022-12-07T17:15:00;14.5;;;6.2;;
61570;SDS011;47463;49.884;10.010;2022-12-07T17:20:00;14.5;;;6.2;;
61570;SDS011;47463;49.884;10.010;2022-12-07T17:25:00;13;;;5.3;;
61570;SDS011;47463;49.884;10.010;2022-12-07T17:30:00;12.2;;;5.4;;
61570;SDS011;47463;49.884;10.010;2022-12-07T17:35:00;12.7;;;6;;
61570;SDS011;47463;49.884;10.010;2022-12-07T17:40:00;11.3;;;5.9;;
61570;SDS011;47463;49.884;10.010;2022-12-07T17:45:00;10.7;;;6.1;;
61570;SDS011;47463;49.884;10.010;2022-12-07T17:50:00;10.7;;;6.1;;
61570;SDS011;47463;49.884;10.010;2022-12-07T17:55:00;10.7;;;5.3;;
61570;SDS011;47463;49.884;10.010;2022-12-07T18:00:00;13.6;;;6.3;;
61570;SDS011;47463;49.884;10.010;2022-12-07T18:05:00;12.4;;;6.5;;
61570;SDS011;47463;49.884;10.010;2022-12-07T18:10:00;14.5;;;7.3;;
61570;SDS011;47463;49.884;10.010;2022-12-07T18:15:00;11.8;;;6.3;;
61570;SDS011;47463;49.884;10.010;2022-12-07T18:20:00;11.8;;;6.3;;
61570;SDS011;47463;49.884;10.010;2022-12-07T18:25:00;11.7;;;5.5;;
61570;SDS011;47463;49.884;10.010;2022-12-07T18:30:00;10.4;;;4.4;;
61570;SDS011;47463;49.884;10.010;2022-12-07T18:35:00;9.4;;;5.1;;
61570;SDS011;47463;49.884;10.010;2022-12-07T18:40:00;9.3;;;4.2;;
61570;SDS011;47463;49.884;10.010;2022-12-07T18:45:00;13.2;;;5.9;;
61570;SDS011;47463;49.884;10.010;2022-12-07T18:50:00;13.2;;;5.9;;
61570;SDS011;47463;49.884;10.010;2022-12-07T18:55:00;10.8;;;5;;
61570;SDS011;47463;49.884;10.010;2022-12-07T19:00:00;12.1;;;6.2;;
61570;SDS011;47463;49.884;10.010;2022-12-07T19:05:00;17.3;;;9.1;;
61570;SDS011;47463;49.884;10.010;2022-12-07T19:10:00;24.6;;;11.8;;
61570;SDS011;47463;49.884;10.010;2022-12-07T19:15:00;23.2;;;12.8;;
61570;SDS011;47463;49.884;10.010;2022-12-07T19:20:00;23.2;;;12.8;;
61570;SDS011;47463;49.884;10.010;2022-12-07T19:25:00;24.7;;;13.1;;
61570;SDS011;47463;49.884;10.010;2022-12-07T19:30:00;23.5;;;12.5;;
61570;SDS011;47463;49.884;10.010;2022-12-07T19:35:00;27.5;;;13.6;;
61570;SDS011;47463;49.884;10.010;2022-12-07T19:40:00;30.2;;;13.9;;
61570;SDS011;47463;49.884;10.010;2022-12-07T19:45:00;27.9;;;14.8;;
61570;SDS011;47463;49.884;10.010;2022-12-07T19:50:00;27.9;;;14.8;;
61570;SDS011;47463;49.884;10.010;2022-12-07T19:55:00;29.5;;;15.9;;
61570;SDS011;47463;49.884;10.010;2022-12-07T20:00:00;43;;;16.1;;
61570;SDS011;47463;49.884;10.010;2022-12-07T20:05:00;35.7;;;15.8;;
61570;SDS011;47463;49.884;10.010;2022-12-07T20:10:00;30.1;;;15.3;;
61570;SDS011;47463;49.884;10.010;2022-12-07T20:15:00;29.8;;;15.5;;
61570;SDS011;47463;49.884;10.010;2022-12-07T20:20:00;29.8;;;15.5;;
61570;SDS011;47463;49.884;10.010;2022-12-07T20:25:00;27.4;;;14.4;;
61570;SDS011;47463;49.884;10.010;2022-12-07T20:30:00;27.1;;;14.1;;
61570;SDS011;47463;49.884;10.010;2022-12-07T20:35:00;28.8;;;14.2;;
61570;SDS011;47463;49.884;10.010;2022-12-07T20:40:00;29;;;14.1;;
61570;SDS011;47463;49.884;10.010;2022-12-07T20:45:00;30.5;;;15.4;;
61570;SDS011;47463;49.884;10.010;2022-12-07T20:50:00;30.5;;;15.4;;
61570;SDS011;47463;49.884;10.010;2022-12-07T20:55:00;28.7;;;14;;
61570;SDS011;47463;49.884;10.010;2022-12-07T21:00:00;33.1;;;15.6;;
61570;SDS011;47463;49.884;10.010;2022-12-07T21:05:00;31.2;;;14.6;;
61570;SDS011;47463;49.884;10.010;2022-12-07T21:10:00;30.9;;;14.7;;
61570;SDS011;47463;49.884;10.010;2022-12-07T21:15:00;27.4;;;15;;
61570;SDS011;47463;49.884;10.010;2022-12-07T21:20:00;27.4;;;15;;
61570;SDS011;47463;49.884;10.010;2022-12-07T21:25:00;28;;;15;;
61570;SDS011;47463;49.884;10.010;2022-12-07T21:30:00;28.1;;;14.5;;
61570;SDS011;47463;49.884;10.010;2022-12-07T21:35:00;27;;;14.3;;
61570;SDS011;47463;49.884;10.010;2022-12-07T21:40:00;31.7;;;15.4;;
61570;SDS011;47463;49.884;10.010;2022-12-07T21:45:00;27.9;;;14.7;;
61570;SDS011;47463;49.884;10.010;2022-12-07T21:50:00;27.9;;;14.7;;
61570;SDS011;47463;49.884;10.010;2022-12-07T21:55:00;31.8;;;15.4;;
61570;SDS011;47463;49.884;10.010;2022-12-07T22:00:00;29.2;;;14.8;;
61570;SDS011;47463;49.884;10.010;2022-12-07T22:05:00;30.6;;;16.1;;
61570;SDS011;47463;49.884;10.010;2022-12-07T22:10:00;28.1;;;15.1;;
61570;SDS011;47463;49.884;10.010;2022-12-07T22:15:00;28.9;;;14.9;;
61570;SDS011;47463;49.884;10.010;2022-12-07T22:20:00;28.9;;;14.9;;
61570;SDS011;47463;49.884;10.010;2022-12-07T22:25:00;35.3;;;16.4;;
61570;SDS011;47463;49.884;10.010;2022-12-07T22:30:00;36.1;;;17.8;;
61570;SDS011;47463;49.884;10.010;2022-12-07T22:35:00;40;;;19.4;;
61570;SDS011;47463;49.884;10.010;2022-12-07T22:40:00;44.9;;;19.5;;
61570;SDS011;47463;49.884;10.010;2022-12-07T22:45:00;46.2;;;20.8;;
61570;SDS011;47463;49.884;10.010;2022-12-07T22:50:00;46.2;;;20.8;;
61570;SDS011;47463;49.884;10.010;2022-12-07T22:55:00;46.2;;;21.5;;
61570;SDS011;47463;49.884;10.010;2022-12-07T23:00:00;44.4;;;20.5;;
61570;SDS011;47463;49.884;10.010;2022-12-07T23:05:00;48.2;;;21.8;;
61570;SDS011;47463;49.884;10.010;2022-12-07T23:10:00;43.1;;;20.6;;
61570;SDS011;47463;49.884;10.010;2022-12-07T23:15:00;49.9;;;21.9;;
61570;SDS011;47463;49.884;10.010;2022-12-07T23:20:00;49.9;;;21.9;;
61570;SDS011;47463;49.884;10.010;2022-12-07T23:25:00;46.4;;;20.2;;
61570;SDS011;47463;49.884;10.010;2022-12-07T23:30:00;45.8;;;20.7;;
61570;SDS011;47463;49.884;10.010;2022-12-07T23:35:00;49.2;;;21.3;;
61570;SDS011;47463;49.884;10.010;2022-12-07T23:40:00;49.2;;;20.7;;
61570;SDS011;47463;49.884;10.010;2022-12-07T23:45:00;57.5;;;23.4;;
61570;SDS011;47463;49.884;10.010;2022-12-07T23:50:00;57.5;;;23.4;;
61570;SDS011;47463;49.884;10.010;2022-12-07T23:55:00;60.2;;;24;;
